PWSweather.com
Personal Weather Stations
Station Observations
IMAZOWIE6
WarszawaPL

WarszawaPL

Lat: 52.27957, Lon: 21.05489

Elevation: 100

Station Type: WS1080

http://stacjapogody.waw.pl/

High Low Average
Temperature 28.4°F-2.0°C 22.1°F-5.5°C 25.3°F-3.7°C
Dew Point -9.1°F-22.8°C -20.7°F-29.3°C -14.1°F-25.6°C
Winds 4.0 mph 6.4 kmh 0.6 mph 1.0 kmh 2.0 mph N3.2 kmh N
Wind Gusts 6.8 mph10.9 kmh 1.4 mph2.3 kmh 4.0 mph6.4 kmh
Humidity 22% 11% 17%
Pressure 30.31 in1026.4 mb 30.12 in1020.0 mb -
Precipitation 0.00 in0.0 mm - -
Hour Temp Dew Point Humidity Winds Wind Gusts Pressure Precip Precip Rate Daily Precip Total
12:02 AM 23.4°F-4.8°C -13.0°F-25.0°C 19% 0.6 mph N1.0 kmh N 2.8 mph4.5 kmh 30.31 in1026.4 mb 0.00 in0.0 mm 0.00 in0.0 mm 0.00 in0.0 mm
12:17 AM 23.2°F-4.9°C -13.1°F-25.1°C 19% 0.6 mph N1.0 kmh N 2.8 mph4.5 kmh 30.30 in1026.1 mb 0.00 in0.0 mm 0.00 in0.0 mm 0.00 in0.0 mm
12:32 AM 23.0°F-5.0°C -13.3°F-25.2°C 19% 1.4 mph N2.3 kmh N 2.8 mph4.5 kmh 30.30 in1026.1 mb 0.00 in0.0 mm 0.00 in0.0 mm 0.00 in0.0 mm
12:47 AM 23.0°F-5.0°C -13.3°F-25.2°C 19% 0.6 mph N1.0 kmh N 2.0 mph3.2 kmh 30.30 in1026.1 mb 0.00 in0.0 mm 0.00 in0.0 mm 0.00 in0.0 mm
01:02 AM 23.0°F-5.0°C -13.3°F-25.2°C 19% 1.4 mph N2.3 kmh N 3.4 mph5.5 kmh 30.30 in1026.1 mb 0.00 in0.0 mm 0.00 in0.0 mm 0.00 in0.0 mm
01:17 AM 23.2°F-4.9°C -13.1°F-25.1°C 19% 0.6 mph N1.0 kmh N 2.0 mph3.2 kmh 30.30 in1026.1 mb 0.00 in0.0 mm 0.00 in0.0 mm 0.00 in0.0 mm
01:32 AM 23.0°F-5.0°C -13.3°F-25.2°C 19% 0.6 mph N1.0 kmh N 2.8 mph4.5 kmh 30.30 in1026.1 mb 0.00 in0.0 mm 0.00 in0.0 mm 0.00 in0.0 mm
01:47 AM 23.0°F-5.0°C -12.3°F-24.6°C 20% 0.6 mph N1.0 kmh N 2.8 mph4.5 kmh 30.30 in1026.1 mb 0.00 in0.0 mm 0.00 in0.0 mm 0.00 in0.0 mm
02:02 AM 23.2°F-4.9°C -12.1°F-24.5°C 20% 1.4 mph N2.3 kmh N 3.4 mph5.5 kmh 30.30 in1026.1 mb 0.00 in0.0 mm 0.00 in0.0 mm 0.00 in0.0 mm
02:17 AM 23.0°F-5.0°C -12.3°F-24.6°C 20% 1.4 mph N2.3 kmh N 2.8 mph4.5 kmh 30.30 in1026.1 mb 0.00 in0.0 mm 0.00 in0.0 mm 0.00 in0.0 mm
02:32 AM 23.2°F-4.9°C -12.1°F-24.5°C 20% 1.4 mph N2.3 kmh N 2.8 mph4.5 kmh 30.30 in1026.1 mb 0.00 in0.0 mm 0.00 in0.0 mm 0.00 in0.0 mm
02:47 AM 23.2°F-4.9°C -11.1°F-23.9°C 21% 0.6 mph N1.0 kmh N 2.0 mph3.2 kmh 30.30 in1026.1 mb 0.00 in0.0 mm 0.00 in0.0 mm 0.00 in0.0 mm
03:02 AM 23.2°F-4.9°C -11.1°F-23.9°C 21% 0.6 mph N1.0 kmh N 2.8 mph4.5 kmh 30.29 in1025.7 mb 0.00 in0.0 mm 0.00 in0.0 mm 0.00 in0.0 mm
03:17 AM 23.4°F-4.8°C -11.0°F-23.9°C 21% 1.4 mph N2.3 kmh N 2.8 mph4.5 kmh 30.29 in1025.7 mb 0.00 in0.0 mm 0.00 in0.0 mm 0.00 in0.0 mm
03:32 AM 23.4°F-4.8°C -11.0°F-23.9°C 21% 0.6 mph N1.0 kmh N 2.0 mph3.2 kmh 30.29 in1025.7 mb 0.00 in0.0 mm 0.00 in0.0 mm 0.00 in0.0 mm
03:47 AM 23.5°F-4.7°C -10.8°F-23.8°C 21% 1.4 mph N2.3 kmh N 2.8 mph4.5 kmh 30.28 in1025.4 mb 0.00 in0.0 mm 0.00 in0.0 mm 0.00 in0.0 mm
04:02 AM 23.5°F-4.7°C -10.8°F-23.8°C 21% 1.4 mph N2.3 kmh N 4.8 mph7.7 kmh 30.28 in1025.4 mb 0.00 in0.0 mm 0.00 in0.0 mm 0.00 in0.0 mm
04:17 AM 23.4°F-4.8°C -11.0°F-23.9°C 21% 1.4 mph N2.3 kmh N 2.8 mph4.5 kmh 30.27 in1025.1 mb 0.00 in0.0 mm 0.00 in0.0 mm 0.00 in0.0 mm
04:32 AM 23.2°F-4.9°C -11.1°F-23.9°C 21% 2.0 mph N3.2 kmh N 3.4 mph5.5 kmh 30.27 in1025.1 mb 0.00 in0.0 mm 0.00 in0.0 mm 0.00 in0.0 mm
04:47 AM 23.2°F-4.9°C -10.2°F-23.4°C 22% 0.6 mph N1.0 kmh N 2.0 mph3.2 kmh 30.27 in1025.1 mb 0.00 in0.0 mm 0.00 in0.0 mm 0.00 in0.0 mm
05:02 AM 23.2°F-4.9°C -11.1°F-23.9°C 21% 2.0 mph N3.2 kmh N 4.8 mph7.7 kmh 30.27 in1025.1 mb 0.00 in0.0 mm 0.00 in0.0 mm 0.00 in0.0 mm
05:17 AM 23.0°F-5.0°C -11.3°F-24.1°C 21% 1.4 mph N2.3 kmh N 3.4 mph5.5 kmh 30.26 in1024.7 mb 0.00 in0.0 mm 0.00 in0.0 mm 0.00 in0.0 mm
05:32 AM 22.8°F-5.1°C -11.4°F-24.1°C 21% 1.4 mph N2.3 kmh N 2.8 mph4.5 kmh 30.26 in1024.7 mb 0.00 in0.0 mm 0.00 in0.0 mm 0.00 in0.0 mm
05:47 AM 22.6°F-5.2°C -11.6°F-24.2°C 21% 2.0 mph N3.2 kmh N 4.8 mph7.7 kmh 30.26 in1024.7 mb 0.00 in0.0 mm 0.00 in0.0 mm 0.00 in0.0 mm
06:02 AM 22.6°F-5.2°C -11.6°F-24.2°C 21% 1.4 mph N2.3 kmh N 3.4 mph5.5 kmh 30.26 in1024.7 mb 0.00 in0.0 mm 0.00 in0.0 mm 0.00 in0.0 mm
06:17 AM 22.6°F-5.2°C -11.6°F-24.2°C 21% 0.6 mph N1.0 kmh N 2.8 mph4.5 kmh 30.26 in1024.7 mb 0.00 in0.0 mm 0.00 in0.0 mm 0.00 in0.0 mm
06:32 AM 22.5°F-5.3°C -10.8°F-23.8°C 22% 2.0 mph N3.2 kmh N 4.0 mph6.4 kmh 30.25 in1024.4 mb 0.00 in0.0 mm 0.00 in0.0 mm 0.00 in0.0 mm
06:47 AM 22.3°F-5.4°C -11.0°F-23.9°C 22% 0.6 mph N1.0 kmh N 1.4 mph2.3 kmh 30.25 in1024.4 mb 0.00 in0.0 mm 0.00 in0.0 mm 0.00 in0.0 mm
07:02 AM 22.3°F-5.4°C -11.0°F-23.9°C 22% 0.6 mph N1.0 kmh N 2.8 mph4.5 kmh 30.26 in1024.7 mb 0.00 in0.0 mm 0.00 in0.0 mm 0.00 in0.0 mm
07:17 AM 22.3°F-5.4°C -11.0°F-23.9°C 22% 1.4 mph N2.3 kmh N 3.4 mph5.5 kmh 30.26 in1024.7 mb 0.00 in0.0 mm 0.00 in0.0 mm 0.00 in0.0 mm
07:32 AM 22.1°F-5.5°C -11.1°F-23.9°C 22% 1.4 mph N2.3 kmh N 3.4 mph5.5 kmh 30.26 in1024.7 mb 0.00 in0.0 mm 0.00 in0.0 mm 0.00 in0.0 mm
07:47 AM 22.5°F-5.3°C -10.8°F-23.8°C 22% 1.4 mph N2.3 kmh N 3.4 mph5.5 kmh 30.26 in1024.7 mb 0.00 in0.0 mm 0.00 in0.0 mm 0.00 in0.0 mm
08:02 AM 22.6°F-5.2°C -10.7°F-23.7°C 22% 1.4 mph N2.3 kmh N 4.0 mph6.4 kmh 30.26 in1024.7 mb 0.00 in0.0 mm 0.00 in0.0 mm 0.00 in0.0 mm
08:17 AM 23.2°F-4.9°C -10.2°F-23.4°C 22% 1.4 mph N2.3 kmh N 2.8 mph4.5 kmh 30.26 in1024.7 mb 0.00 in0.0 mm 0.00 in0.0 mm 0.00 in0.0 mm
08:32 AM 23.0°F-5.0°C -10.4°F-23.6°C 22% 1.4 mph N2.3 kmh N 2.8 mph4.5 kmh 30.26 in1024.7 mb 0.00 in0.0 mm 0.00 in0.0 mm 0.00 in0.0 mm
08:47 AM 23.2°F-4.9°C -10.2°F-23.4°C 22% 1.4 mph N2.3 kmh N 2.8 mph4.5 kmh 30.26 in1024.7 mb 0.00 in0.0 mm 0.00 in0.0 mm 0.00 in0.0 mm
09:02 AM 23.9°F-4.5°C -9.6°F-23.1°C 22% 1.4 mph N2.3 kmh N 2.8 mph4.5 kmh 30.26 in1024.7 mb 0.00 in0.0 mm 0.00 in0.0 mm 0.00 in0.0 mm
09:17 AM 23.9°F-4.5°C -9.6°F-23.1°C 22% 2.0 mph N3.2 kmh N 5.4 mph8.7 kmh 30.26 in1024.7 mb 0.00 in0.0 mm 0.00 in0.0 mm 0.00 in0.0 mm
09:32 AM 24.4°F-4.2°C -9.1°F-22.8°C 22% 2.0 mph N3.2 kmh N 4.0 mph6.4 kmh 30.26 in1024.7 mb 0.00 in0.0 mm 0.00 in0.0 mm 0.00 in0.0 mm
09:47 AM 24.6°F-4.1°C -9.9°F-23.3°C 21% 2.0 mph N3.2 kmh N 4.8 mph7.7 kmh 30.26 in1024.7 mb 0.00 in0.0 mm 0.00 in0.0 mm 0.00 in0.0 mm
10:02 AM 25.2°F-3.8°C -9.5°F-23.1°C 21% 1.4 mph N2.3 kmh N 3.4 mph5.5 kmh 30.26 in1024.7 mb 0.00 in0.0 mm 0.00 in0.0 mm 0.00 in0.0 mm
10:17 AM 25.2°F-3.8°C -10.5°F-23.6°C 20% 2.8 mph N4.5 kmh N 4.8 mph7.7 kmh 30.26 in1024.7 mb 0.00 in0.0 mm 0.00 in0.0 mm 0.00 in0.0 mm
10:32 AM 25.7°F-3.5°C -10.0°F-23.3°C 20% 3.4 mph N5.5 kmh N 6.8 mph10.9 kmh 30.26 in1024.7 mb 0.00 in0.0 mm 0.00 in0.0 mm 0.00 in0.0 mm
10:47 AM 25.5°F-3.6°C -11.2°F-24.0°C 19% 1.4 mph N2.3 kmh N 3.4 mph5.5 kmh 30.27 in1025.1 mb 0.01 in0.3 mm 0.05 in1.3 mm 0.01 in0.3 mm
11:02 AM 26.2°F-3.2°C -10.6°F-23.7°C 19% 2.0 mph N3.2 kmh N 4.0 mph6.4 kmh 30.25 in1024.4 mb 0.01 in0.3 mm 0.00 in0.0 mm 0.01 in0.3 mm
11:17 AM 26.8°F-2.9°C -11.2°F-24.0°C 18% 1.4 mph N2.3 kmh N 4.0 mph6.4 kmh 30.25 in1024.4 mb 0.00 in0.0 mm 0.00 in0.0 mm 0.01 in0.3 mm
11:32 AM 27.5°F-2.5°C -10.6°F-23.7°C 18% 2.0 mph N3.2 kmh N 4.8 mph7.7 kmh 30.25 in1024.4 mb 0.00 in0.0 mm 0.00 in0.0 mm 0.01 in0.3 mm
11:47 AM 27.1°F-2.7°C -13.2°F-25.1°C 16% 0.6 mph N1.0 kmh N 2.8 mph4.5 kmh 30.25 in1024.4 mb 0.00 in0.0 mm 0.00 in0.0 mm 0.01 in0.3 mm
12:02 PM 27.7°F-2.4°C -12.8°F-24.9°C 16% 1.4 mph N2.3 kmh N 2.8 mph4.5 kmh 30.25 in1024.4 mb 0.00 in0.0 mm 0.00 in0.0 mm 0.01 in0.3 mm
12:17 PM 27.9°F-2.3°C -13.9°F-25.5°C 15% 2.0 mph N3.2 kmh N 4.0 mph6.4 kmh 30.24 in1024.0 mb 0.00 in0.0 mm 0.00 in0.0 mm 0.01 in0.3 mm
12:32 PM 28.2°F-2.1°C -15.0°F-26.1°C 14% 2.0 mph N3.2 kmh N 3.4 mph5.5 kmh 30.23 in1023.7 mb 0.00 in0.0 mm 0.00 in0.0 mm 0.01 in0.3 mm
12:47 PM 28.4°F-2.0°C -16.3°F-26.8°C 13% 3.4 mph N5.5 kmh N 5.4 mph8.7 kmh 30.22 in1023.4 mb 0.00 in0.0 mm 0.00 in0.0 mm 0.01 in0.3 mm
01:02 PM 28.2°F-2.1°C -16.4°F-26.9°C 13% 2.8 mph N4.5 kmh N 5.4 mph8.7 kmh 30.22 in1023.4 mb 0.00 in0.0 mm 0.00 in0.0 mm 0.01 in0.3 mm
01:17 PM 28.2°F-2.1°C -17.9°F-27.7°C 12% 1.4 mph N2.3 kmh N 3.4 mph5.5 kmh 30.21 in1023.0 mb 0.00 in0.0 mm 0.00 in0.0 mm 0.01 in0.3 mm
01:32 PM 27.7°F-2.4°C -18.4°F-28.0°C 12% 2.8 mph N4.5 kmh N 4.0 mph6.4 kmh 30.21 in1023.0 mb 0.00 in0.0 mm 0.00 in0.0 mm 0.01 in0.3 mm
01:47 PM 27.7°F-2.4°C -18.4°F-28.0°C 12% 1.4 mph N2.3 kmh N 3.4 mph5.5 kmh 30.21 in1023.0 mb 0.00 in0.0 mm 0.00 in0.0 mm 0.01 in0.3 mm
02:02 PM 27.5°F-2.5°C -18.5°F-28.1°C 12% 1.4 mph N2.3 kmh N 3.4 mph5.5 kmh 30.21 in1023.0 mb 0.00 in0.0 mm 0.00 in0.0 mm 0.01 in0.3 mm
02:17 PM 27.1°F-2.7°C -20.4°F-29.1°C 11% 2.8 mph N4.5 kmh N 4.8 mph7.7 kmh 30.19 in1022.4 mb 0.00 in0.0 mm 0.00 in0.0 mm 0.01 in0.3 mm
02:32 PM 27.1°F-2.7°C -20.4°F-29.1°C 11% 1.4 mph N2.3 kmh N 2.8 mph4.5 kmh 30.19 in1022.4 mb 0.00 in0.0 mm 0.00 in0.0 mm 0.01 in0.3 mm
02:47 PM 27.1°F-2.7°C -18.8°F-28.2°C 12% 2.0 mph N3.2 kmh N 4.0 mph6.4 kmh 30.19 in1022.4 mb 0.00 in0.0 mm 0.00 in0.0 mm 0.01 in0.3 mm
03:02 PM 27.3°F-2.6°C -18.6°F-28.1°C 12% 1.4 mph N2.3 kmh N 3.4 mph5.5 kmh 30.19 in1022.4 mb 0.00 in0.0 mm 0.00 in0.0 mm 0.01 in0.3 mm
03:17 PM 27.1°F-2.7°C -18.8°F-28.2°C 12% 1.4 mph N2.3 kmh N 3.4 mph5.5 kmh 30.19 in1022.4 mb 0.00 in0.0 mm 0.00 in0.0 mm 0.01 in0.3 mm
03:32 PM 27.0°F-2.8°C -18.9°F-28.3°C 12% 2.0 mph N3.2 kmh N 3.4 mph5.5 kmh 30.18 in1022.0 mb 0.00 in0.0 mm 0.00 in0.0 mm 0.01 in0.3 mm
03:47 PM 27.0°F-2.8°C -18.9°F-28.3°C 12% 2.0 mph N3.2 kmh N 4.0 mph6.4 kmh 30.18 in1022.0 mb 0.00 in0.0 mm 0.00 in0.0 mm 0.01 in0.3 mm
04:02 PM 26.8°F-2.9°C -19.1°F-28.4°C 12% 2.0 mph N3.2 kmh N 4.0 mph6.4 kmh 30.18 in1022.0 mb 0.00 in0.0 mm 0.00 in0.0 mm 0.01 in0.3 mm
04:17 PM 26.8°F-2.9°C -19.1°F-28.4°C 12% 3.4 mph N5.5 kmh N 5.4 mph8.7 kmh 30.17 in1021.7 mb 0.00 in0.0 mm 0.00 in0.0 mm 0.01 in0.3 mm
04:32 PM 26.6°F-3.0°C -19.2°F-28.4°C 12% 2.8 mph N4.5 kmh N 4.0 mph6.4 kmh 30.17 in1021.7 mb 0.00 in0.0 mm 0.00 in0.0 mm 0.01 in0.3 mm
04:47 PM 26.8°F-2.9°C -19.1°F-28.4°C 12% 2.0 mph N3.2 kmh N 4.8 mph7.7 kmh 30.17 in1021.7 mb 0.00 in0.0 mm 0.00 in0.0 mm 0.01 in0.3 mm
05:02 PM 26.8°F-2.9°C -17.5°F-27.5°C 13% 2.8 mph N4.5 kmh N 6.2 mph10.0 kmh 30.17 in1021.7 mb 0.00 in0.0 mm 0.00 in0.0 mm 0.01 in0.3 mm
05:17 PM 26.6°F-3.0°C -17.7°F-27.6°C 13% 4.0 mph N6.4 kmh N 6.2 mph10.0 kmh 30.17 in1021.7 mb 0.00 in0.0 mm 0.00 in0.0 mm 0.01 in0.3 mm
05:32 PM 26.6°F-3.0°C -19.2°F-28.4°C 12% 2.0 mph N3.2 kmh N 4.0 mph6.4 kmh 30.17 in1021.7 mb 0.00 in0.0 mm 0.00 in0.0 mm 0.01 in0.3 mm
05:47 PM 26.6°F-3.0°C -17.7°F-27.6°C 13% 2.8 mph N4.5 kmh N 4.0 mph6.4 kmh 30.16 in1021.3 mb 0.00 in0.0 mm 0.00 in0.0 mm 0.01 in0.3 mm
06:02 PM 26.6°F-3.0°C -19.2°F-28.4°C 12% 2.0 mph N3.2 kmh N 4.8 mph7.7 kmh 30.16 in1021.3 mb 0.00 in0.0 mm 0.00 in0.0 mm 0.01 in0.3 mm
06:17 PM 26.6°F-3.0°C -19.2°F-28.4°C 12% 2.0 mph N3.2 kmh N 3.4 mph5.5 kmh 30.15 in1021.0 mb 0.00 in0.0 mm 0.00 in0.0 mm 0.01 in0.3 mm
06:32 PM 26.8°F-2.9°C -19.1°F-28.4°C 12% 2.0 mph N3.2 kmh N 4.0 mph6.4 kmh 30.16 in1021.3 mb 0.00 in0.0 mm 0.00 in0.0 mm 0.01 in0.3 mm
06:47 PM 26.8°F-2.9°C -19.1°F-28.4°C 12% 2.0 mph N3.2 kmh N 5.4 mph8.7 kmh 30.15 in1021.0 mb 0.00 in0.0 mm 0.00 in0.0 mm 0.01 in0.3 mm
07:02 PM 27.0°F-2.8°C -20.6°F-29.2°C 11% 1.4 mph N2.3 kmh N 2.8 mph4.5 kmh 30.15 in1021.0 mb 0.00 in0.0 mm 0.00 in0.0 mm 0.01 in0.3 mm
07:17 PM 27.0°F-2.8°C -20.6°F-29.2°C 11% 1.4 mph N2.3 kmh N 2.8 mph4.5 kmh 30.15 in1021.0 mb 0.00 in0.0 mm 0.00 in0.0 mm 0.01 in0.3 mm
07:32 PM 27.1°F-2.7°C -20.4°F-29.1°C 11% 3.4 mph N5.5 kmh N 5.4 mph8.7 kmh 30.15 in1021.0 mb 0.00 in0.0 mm 0.00 in0.0 mm 0.01 in0.3 mm
07:47 PM 27.1°F-2.7°C -20.4°F-29.1°C 11% 2.8 mph N4.5 kmh N 4.0 mph6.4 kmh 30.14 in1020.7 mb 0.00 in0.0 mm 0.00 in0.0 mm 0.01 in0.3 mm
08:02 PM 27.0°F-2.8°C -20.6°F-29.2°C 11% 2.8 mph N4.5 kmh N 6.8 mph10.9 kmh 30.14 in1020.7 mb 0.00 in0.0 mm 0.00 in0.0 mm 0.01 in0.3 mm
08:17 PM 26.8°F-2.9°C -20.7°F-29.3°C 11% 2.8 mph N4.5 kmh N 5.4 mph8.7 kmh 30.14 in1020.7 mb 0.00 in0.0 mm 0.00 in0.0 mm 0.01 in0.3 mm
08:32 PM 26.8°F-2.9°C -19.1°F-28.4°C 12% 2.8 mph N4.5 kmh N 5.4 mph8.7 kmh 30.14 in1020.7 mb 0.00 in0.0 mm 0.00 in0.0 mm 0.01 in0.3 mm
08:47 PM 26.6°F-3.0°C -17.7°F-27.6°C 13% 2.0 mph N3.2 kmh N 4.0 mph6.4 kmh 30.14 in1020.7 mb 0.00 in0.0 mm 0.00 in0.0 mm 0.01 in0.3 mm
09:02 PM 26.6°F-3.0°C -16.3°F-26.8°C 14% 1.4 mph N2.3 kmh N 3.4 mph5.5 kmh 30.14 in1020.7 mb 0.00 in0.0 mm 0.00 in0.0 mm 0.01 in0.3 mm
09:17 PM 26.4°F-3.1°C -15.1°F-26.2°C 15% 2.0 mph N3.2 kmh N 3.4 mph5.5 kmh 30.14 in1020.7 mb 0.00 in0.0 mm 0.00 in0.0 mm 0.01 in0.3 mm
09:32 PM 26.4°F-3.1°C -13.8°F-25.4°C 16% 3.4 mph N5.5 kmh N 4.8 mph7.7 kmh 30.13 in1020.3 mb 0.00 in0.0 mm 0.00 in0.0 mm 0.01 in0.3 mm
09:47 PM 26.2°F-3.2°C -12.8°F-24.9°C 17% 2.0 mph N3.2 kmh N 4.0 mph6.4 kmh 30.13 in1020.3 mb 0.00 in0.0 mm 0.00 in0.0 mm 0.01 in0.3 mm
10:02 PM 26.4°F-3.1°C -12.6°F-24.8°C 17% 3.4 mph N5.5 kmh N 6.2 mph10.0 kmh 30.13 in1020.3 mb 0.00 in0.0 mm 0.00 in0.0 mm 0.01 in0.3 mm
10:17 PM 26.2°F-3.2°C -11.7°F-24.3°C 18% 2.8 mph N4.5 kmh N 4.0 mph6.4 kmh 30.12 in1020.0 mb 0.00 in0.0 mm 0.00 in0.0 mm 0.01 in0.3 mm
10:32 PM 26.4°F-3.1°C -11.5°F-24.2°C 18% 1.4 mph N2.3 kmh N 4.0 mph6.4 kmh 30.12 in1020.0 mb 0.00 in0.0 mm 0.00 in0.0 mm 0.01 in0.3 mm
10:47 PM 26.1°F-3.3°C -10.7°F-23.7°C 19% 1.4 mph N2.3 kmh N 3.4 mph5.5 kmh 30.12 in1020.0 mb 0.00 in0.0 mm 0.00 in0.0 mm 0.01 in0.3 mm
11:02 PM 26.1°F-3.3°C -10.7°F-23.7°C 19% 2.8 mph N4.5 kmh N 4.8 mph7.7 kmh 30.12 in1020.0 mb 0.00 in0.0 mm 0.00 in0.0 mm 0.01 in0.3 mm
11:17 PM 26.2°F-3.2°C -9.6°F-23.1°C 20% 1.4 mph N2.3 kmh N 2.8 mph4.5 kmh 30.12 in1020.0 mb 0.00 in0.0 mm 0.00 in0.0 mm 0.01 in0.3 mm
11:32 PM 26.2°F-3.2°C -9.6°F-23.1°C 20% 1.4 mph N2.3 kmh N 2.8 mph4.5 kmh 30.12 in1020.0 mb 0.00 in0.0 mm 0.00 in0.0 mm 0.01 in0.3 mm
11:47 PM 26.4°F-3.1°C -9.4°F-23.0°C 20% 0.6 mph N1.0 kmh N 3.4 mph5.5 kmh 30.12 in1020.0 mb 0.00 in0.0 mm 0.00 in0.0 mm 0.01 in0.3 mm